Latest Weather Observations for Dum In Mirrie

IDD60801

Issued at 5:11 pm CST Sunday 15 September 2019 (issued every 10 minutes, with the page automatically refreshed every 10 minutes)

About weather observations | Map of weather stations | Latest weather observations for NT | Other Formats
Station Details ID: 014277 Name: DUM IN MIRRIE AIRSTRIP Lat: -12.63 Lon: 130.37 Height: 3.5 m
Data from the previous 72 hours. | See also: Recent months at Dum In Mirrie
Date/Time
CST
Temp
°C
App
Temp
°C
Dew
Point
°C
Rel
Hum
%
Delta-T
°C
Wind Press
QNH
hPa
Press
MSL
hPa
Rain since
9am
mm
Dir  Spd
km/h
Gust
km/h
Spd
kts
Gust
kts
15/05:00pm 27.3 26.9 17.2 54 6.3 NNE 15 26 8 14 1011.9 1011.9 0.0
15/04:30pm 27.3 26.0 16.9 53 6.5 NNE 19 33 10 18 1011.8 1011.8 0.0
15/04:00pm 28.6 28.4 17.5 51 7.0 NNE 15 26 8 14 1011.6 1011.6 0.0
15/03:30pm 29.2 28.9 17.4 49 7.5 NNE 15 32 8 17 1011.6 1011.6 0.0
15/03:00pm 29.1 28.9 18.5 52 6.8 NNE 17 28 9 15 1011.8 1011.8 0.0
15/02:30pm 29.8 29.8 17.3 47 7.9 NNE 13 28 7 15 1012.1 1012.1 0.0
15/02:00pm 33.2 29.3 7.2 20 14.3 E 17 30 9 16 1012.2 1012.2 0.0
15/01:30pm 33.1 29.2 7.1 20 14.2 E 17 28 9 15 1012.5 1012.5 0.0
15/01:00pm 32.9 29.1 7.7 21 13.9 ENE 17 32 9 17 1013.1 1013.1 0.0
15/12:30pm 32.0 28.2 8.9 24 12.9 E 19 32 10 17 1013.7 1013.7 0.0
15/12:00pm 31.4 27.2 8.4 24 12.7 E 20 35 11 19 1014.3 1014.3 0.0
15/11:30am 30.9 27.4 10.8 29 11.5 E 20 33 11 18 1014.7 1014.7 0.0
15/11:00am 30.2 27.6 12.1 32 10.6 E 17 30 9 16 1015.3 1015.3 0.0
15/10:30am 29.5 27.9 12.9 36 9.8 E 13 22 7 12 1015.7 1015.7 0.0
15/10:00am 28.6 26.5 11.2 34 10.0 ESE 13 26 7 14 1016.1 1016.1 0.0
15/09:30am 28.1 29.0 16.7 50 7.1 ESE 7 13 4 7 1016.5 1016.5 0.0
15/09:00am 26.2 27.3 17.0 57 5.7 E 7 13 4 7 1016.8 1016.8 0.0
15/08:30am 26.0 28.2 19.2 66 4.4 E 6 7 3 4 1016.7 1016.7 0.0
15/08:00am 25.0 28.2 20.5 76 2.9 E 4 6 2 3 1016.5 1016.5 0.0
15/07:30am 21.6 24.8 19.7 89 1.2 SE 2 6 1 3 1016.4 1016.4 0.0
15/07:00am 19.7 21.8 18.2 91 0.9 ENE 4 6 2 3 1016.2 1016.2 0.0
15/06:30am 20.6 23.6 18.4 87 1.4 CALM 0 2 0 1 1015.8 1015.8 0.0
15/06:00am 21.9 24.4 19.1 84 1.8 E 4 6 2 3 1015.6 1015.6 0.0
15/05:30am 21.4 24.2 19.7 90 1.1 ENE 4 7 2 4 1015.3 1015.3 0.0
15/05:00am 21.2 24.4 20.4 95 0.5 NE 4 7 2 4 1015.1 1015.1 0.0
15/04:30am 19.6 21.9 18.6 94 0.6 ENE 4 6 2 3 1014.9 1014.9 0.0
15/04:00am 18.9 20.6 17.2 90 1.0 ENE 4 6 2 3 1014.7 1014.7 0.0
15/03:30am 19.4 21.5 17.2 87 1.3 ESE 2 4 1 2 1014.8 1014.8 0.0
15/03:00am 20.0 22.1 17.2 84 1.7 ESE 2 4 1 2 1014.9 1014.9 0.0
15/02:30am 20.7 23.2 18.1 85 1.6 SE 2 4 1 2 1015.0 1015.0 0.0
15/02:00am 20.0 22.7 17.8 87 1.4 CALM 0 4 0 2 1014.9 1014.9 0.0
15/01:30am 19.7 22.1 16.9 84 1.7 CALM 0 0 0 0 1015.0 1015.0 0.0
15/01:00am 19.8 22.0 16.6 82 1.9 CALM 0 0 0 0 1015.1 1015.1 0.0
15/12:30am 20.0 22.3 16.8 82 1.9 CALM 0 0 0 0 1015.0 1015.0 0.0
15/12:00am 20.3 22.9 17.5 84 1.7 CALM 0 0 0 0 1015.1 1015.1 0.0
 
Date/Time
CST
Temp
°C
App
Temp
°C
Dew
Point
°C
Rel
Hum
%
Delta-T
°C
Wind Press
QNH
hPa
Press
MSL
hPa
Rain since
9am
mm
Dir  Spd
km/h
Gust
km/h
Spd
kts
Gust
kts
14/11:30pm 20.7 22.8 17.3 81 2.1 SE 2 6 1 3 1015.3 1015.3 0.0
14/11:00pm 20.4 22.8 17.0 81 2.1 CALM 0 2 0 1 1015.1 1015.1 0.0
14/10:30pm 21.1 23.5 17.1 78 2.4 CALM 0 0 0 0 1015.2 1015.2 0.0
14/10:00pm 21.1 23.4 16.7 76 2.7 CALM 0 0 0 0 1015.1 1015.1 0.0
14/09:30pm 21.6 23.6 16.1 71 3.3 CALM 0 0 0 0 1014.9 1014.9 0.0
14/09:00pm 23.1 25.2 16.2 65 4.2 CALM 0 0 0 0 1014.5 1014.5 0.0
14/08:30pm 25.3 27.2 16.7 59 5.3 NE 2 6 1 3 1014.0 1014.0 0.0
14/08:00pm 25.5 26.7 16.9 59 5.3 NE 6 7 3 4 1013.8 1013.8 0.0
14/07:30pm 26.0 27.3 17.1 58 5.5 NE 6 11 3 6 1013.5 1013.5 0.0
14/07:00pm 26.7 27.6 16.6 54 6.3 NE 7 15 4 8 1013.1 1013.1 0.0
14/06:30pm 27.4 27.5 15.4 48 7.3 NNE 9 20 5 11 1012.9 1012.9 0.0
14/06:00pm 28.2 27.4 15.1 44 8.0 NNE 13 24 7 13 1012.7 1012.7 0.0
14/05:30pm 28.6 27.2 14.4 41 8.6 NNE 15 26 8 14 1012.6 1012.6 0.0
14/05:00pm 29.2 28.1 16.4 46 8.0 NNE 17 30 9 16 1012.5 1012.5 0.0
14/04:30pm 29.2 27.7 16.4 46 8.0 NNE 19 32 10 17 1012.4 1012.4 0.0
14/04:00pm 30.2 28.4 15.5 41 9.1 NNE 19 30 10 16 1012.5 1012.5 0.0
14/03:30pm 31.2 29.0 14.4 36 10.2 NNE 19 32 10 17 1012.5 1012.5 0.0
14/03:00pm 30.7 28.0 13.5 35 10.3 NNE 20 33 11 18 1012.8 1012.8 0.0
14/02:30pm 31.6 29.7 14.3 35 10.5 NNE 17 32 9 17 1013.0 1013.0 0.0
14/02:00pm 32.7 29.9 10.1 25 13.0 E 15 26 8 14 1013.6 1013.6 0.0
14/01:30pm 32.8 29.3 8.9 23 13.4 E 17 28 9 15 1014.1 1014.1 0.0
14/01:00pm 32.9 29.3 8.4 22 13.7 E 17 32 9 17 1014.7 1014.7 0.0
14/12:30pm 32.1 28.1 9.0 24 13.0 ESE 20 30 11 16 1015.2 1015.2 0.0
14/12:00pm 31.8 27.2 8.1 23 13.1 E 22 39 12 21 1015.8 1015.8 0.0
14/11:30am 30.8 26.6 9.6 27 11.9 E 22 37 12 20 1016.1 1016.1 0.0
14/11:00am 30.0 25.6 9.0 27 11.7 E 22 39 12 21 1016.9 1016.9 0.0
14/10:30am 29.7 26.3 11.2 31 10.6 E 20 35 11 19 1017.2 1017.2 0.0
14/10:00am 28.2 26.0 13.3 40 8.8 E 17 30 9 16 1017.6 1017.6 0.0
14/09:30am 27.8 26.5 13.7 42 8.4 E 13 24 7 13 1017.7 1017.7 0.0
14/09:00am 26.7 26.3 16.3 53 6.4 E 13 20 7 11 1017.9 1017.9 0.0
14/08:30am 25.8 27.8 19.9 70 3.8 E 9 13 5 7 1017.9 1017.9 0.0
14/08:00am 24.5 27.6 21.0 81 2.3 E 6 13 3 7 1017.8 1017.8 0.0
14/07:30am 22.2 25.5 21.5 96 0.5 E 6 7 3 4 1017.6 1017.6 0.0
14/07:00am 19.3 21.6 18.6 96 0.4 E 4 7 2 4 1017.2 1017.2 0.0
14/06:30am 19.5 21.7 18.3 93 0.7 E 4 6 2 3 1016.9 1016.9 0.0
14/06:00am 20.1 22.5 18.9 93 0.8 E 4 6 2 3 1016.5 1016.5 0.0
14/05:30am 20.2 22.7 19.9 98 0.2 E 6 7 3 4 1016.2 1016.2 0.0
14/05:00am 19.9 22.1 19.6 98 0.2 ESE 7 9 4 5 1016.0 1016.0 0.0
14/04:30am 18.7 21.1 18.0 96 0.4 E 2 6 1 3 1015.5 1015.5 0.0
14/04:00am 18.8 20.9 18.1 96 0.4 E 4 4 2 2 1015.4 1015.4 0.0
14/03:30am 19.0 21.5 18.2 95 0.5 NE 2 4 1 2 1015.3 1015.3 0.0
14/03:00am 19.1 21.6 18.1 94 0.6 NE 2 4 1 2 1015.4 1015.4 0.0
14/02:30am 19.4 21.5 18.2 93 0.7 ENE 4 7 2 4 1015.4 1015.4 0.0
14/02:00am 19.1 21.0 17.6 91 0.9 E 4 6 2 3 1015.7 1015.7 0.0
14/01:30am 20.0 22.0 18.7 92 0.8 E 6 7 3 4 1015.9 1015.9 0.0
14/01:00am 19.1 21.2 17.2 89 1.2 ESE 2 4 1 2 1015.5 1015.5 0.0
14/12:30am 19.8 22.0 16.6 82 1.9 CALM 0 0 0 0 1015.7 1015.7 0.0
14/12:00am 21.5 23.9 16.9 75 2.8 CALM 0 0 0 0 1015.6 1015.6 0.0
 
Date/Time
CST
Temp
°C
App
Temp
°C
Dew
Point
°C
Rel
Hum
%
Delta-T
°C
Wind Press
QNH
hPa
Press
MSL
hPa
Rain since
9am
mm
Dir  Spd
km/h
Gust
km/h
Spd
kts
Gust
kts
13/11:30pm 23.7 25.8 18.1 71 3.5 S 4 9 2 5 1015.6 1015.6 0.0
13/11:00pm 24.4 26.7 18.6 70 3.7 SSW 4 7 2 4 1015.6 1015.6 0.0
13/10:30pm 25.0 26.7 18.4 66 4.2 SSW 7 13 4 7 1015.7 1015.7 0.0
13/10:00pm 25.2 26.5 18.4 66 4.3 SSW 9 17 5 9 1015.6 1015.6 0.0
13/09:30pm 25.1 27.0 18.5 67 4.2 SW 6 11 3 6 1015.5 1015.5 0.0
13/09:00pm 23.1 25.4 17.8 72 3.3 SW 2 7 1 4 1015.3 1015.3 0.0
13/08:30pm 21.4 22.1 14.6 65 4.0 SW 4 7 2 4 1015.0 1015.0 0.0
13/08:00pm 21.7 22.0 13.3 59 4.8 SW 4 6 2 3 1014.7 1014.7 0.0
13/07:30pm 22.8 23.8 13.3 55 5.5 CALM 0 4 0 2 1014.1 1014.1 0.0
13/07:00pm 25.3 25.9 13.2 47 7.1 NNE 2 6 1 3 1013.8 1013.8 0.0
13/06:30pm 27.0 26.8 13.0 42 8.2 NNE 6 11 3 6 1013.4 1013.4 0.0
13/06:00pm 28.1 25.9 12.0 36 9.3 NNE 15 26 8 14 1013.1 1013.1 0.0
13/05:30pm 28.6 25.9 11.6 34 9.8 NNE 17 30 9 16 1012.9 1012.9 0.0
13/05:00pm 29.3 26.4 12.3 35 9.9 NE 19 33 10 18 1012.9 1012.9 0.0
13/04:30pm 29.9 27.2 12.8 35 10.1 NE 19 32 10 17 1012.9 1012.9 0.0
13/04:00pm 29.5 26.9 13.7 38 9.5 NNE 20 33 11 18 1013.0 1013.0 0.0
13/03:30pm 30.9 29.1 13.2 34 10.6 NNE 15 28 8 15 1013.3 1013.3 0.0
13/03:00pm 30.7 28.7 12.6 33 10.7 NE 15 33 8 18 1013.5 1013.5 0.0
13/02:30pm 33.4 28.3 4.2 16 15.3 E 20 33 11 18 1013.9 1013.9 0.0
13/02:00pm 33.4 29.0 6.6 19 14.6 E 19 28 10 15 1014.4 1014.4 0.0
13/01:30pm 32.8 28.6 7.6 21 13.9 E 19 28 10 15 1015.0 1015.0 0.0
13/01:00pm 31.9 27.7 7.5 22 13.4 E 19 30 10 16 1015.5 1015.5 0.0
13/12:30pm 31.0 26.9 8.7 25 12.4 E 20 32 11 17 1016.2 1016.2 0.0
13/12:00pm 31.1 28.3 9.9 27 12.0 ESE 15 28 8 15 1016.8 1016.8 0.0
13/11:30am 30.8 28.3 11.2 30 11.3 E 15 26 8 14 1017.3 1017.3 0.0
13/11:00am 29.3 27.2 12.3 35 9.9 E 15 30 8 16 1017.7 1017.7 0.0
13/10:30am 28.4 25.5 11.0 34 9.9 ESE 17 26 9 14 1018.0 1018.0 0.0
13/10:00am 27.8 26.9 14.8 45 7.9 E 13 22 7 12 1018.2 1018.2 0.0
13/09:30am 26.8 25.7 14.2 46 7.5 E 13 20 7 11 1018.3 1018.3 0.0
13/09:00am 26.4 26.7 16.9 56 5.9 E 11 19 6 10 1018.4 1018.4 0.0
13/08:30am 25.7 27.4 18.6 65 4.5 E 7 15 4 8 1018.2 1018.2 0.0
13/08:00am 24.9 27.6 20.2 75 3.1 ENE 6 11 3 6 1018.1 1018.1 0.0
13/07:30am 22.0 25.7 19.9 88 1.3 CALM 0 0 0 0 1017.7 1017.7 0.0
13/07:00am 22.0 24.7 19.4 85 1.7 ESE 4 6 2 3 1017.4 1017.4 0.0
13/06:30am 22.9 25.3 19.7 82 2.0 E 6 9 3 5 1017.0 1017.0 0.0
13/06:00am 23.1 25.3 19.3 79 2.4 ENE 6 11 3 6 1016.7 1016.7 0.0
13/05:30am 23.3 25.5 19.5 79 2.4 ENE 7 13 4 7 1016.4 1016.4 0.0
13/05:00am 22.9 25.2 19.5 81 2.2 ENE 6 9 3 5 1016.2 1016.2 0.0
13/04:30am 22.9 25.3 19.7 82 2.0 ENE 6 9 3 5 1015.9 1015.9 0.0
13/04:00am 22.1 25.3 20.6 91 1.0 NE 4 9 2 5 1015.9 1015.9 0.0
13/03:30am 20.4 23.5 19.4 94 0.6 NE 2 6 1 3 1016.0 1016.0 0.0
13/03:00am 20.3 23.6 19.0 92 0.8 CALM 0 0 0 0 1016.1 1016.1 0.0
13/02:30am 21.4 25.0 20.6 95 0.5 W 2 4 1 2 1016.0 1016.0 0.0
13/02:00am 21.3 23.9 19.2 88 1.3 N 4 6 2 3 1016.0 1016.0 0.0
13/01:30am 21.8 24.2 19.7 88 1.3 E 6 7 3 4 1016.2 1016.2 0.0
13/01:00am 21.0 23.4 18.8 87 1.4 ESE 4 6 2 3 1016.4 1016.4 0.0
13/12:30am 21.1 23.7 19.2 89 1.2 ESE 4 7 2 4 1016.3 1016.3 0.0
13/12:00am 20.7 23.7 18.5 87 1.4 CALM 0 0 0 0 1016.4 1016.4 0.0
 
Date/Time
CST
Temp
°C
App
Temp
°C
Dew
Point
°C
Rel
Hum
%
Delta-T
°C
Wind Press
QNH
hPa
Press
MSL
hPa
Rain since
9am
mm
Dir  Spd
km/h
Gust
km/h
Spd
kts
Gust
kts
12/11:30pm 20.6 23.1 18.2 86 1.5 SE 2 4 1 2 1016.4 1016.4 0.0
12/11:00pm 20.8 23.8 18.4 86 1.5 CALM 0 0 0 0 1016.2 1016.2 0.0
12/10:30pm 20.3 22.2 16.7 80 2.2 SE 2 4 1 2 1016.2 1016.2 0.0
12/10:00pm 20.2 22.4 16.4 79 2.3 CALM 0 0 0 0 1016.1 1016.1 0.0
12/09:30pm 20.4 22.5 16.2 77 2.5 CALM 0 0 0 0 1015.9 1015.9 0.0
12/09:00pm 20.8 22.9 16.2 75 2.8 CALM 0 0 0 0 1015.7 1015.7 0.0
12/08:30pm 21.9 24.1 16.4 71 3.3 CALM 0 0 0 0 1015.5 1015.5 0.0
12/08:00pm 23.5 25.6 16.3 64 4.4 CALM 0 4 0 2 1015.2 1015.2 0.0
12/07:30pm 25.6 27.4 17.3 60 5.2 NNE 4 7 2 4 1014.8 1014.8 0.0
12/07:00pm 26.2 27.3 17.0 57 5.7 NNE 7 13 4 7 1014.3 1014.3 0.0
12/06:30pm 26.8 27.6 17.3 56 5.9 NNE 9 17 5 9 1013.9 1013.9 0.0
12/06:00pm 27.6 27.2 16.2 49 7.0 NNE 13 22 7 12 1013.5 1013.5 0.0
12/05:30pm 28.3 28.1 16.6 49 7.3 NNE 13 22 7 12 1013.5 1013.5 0.0

Other formats

Comma delimited format used in spreadsheet applications
http://www.bom.gov.au/fwo/IDD60801/IDD60801.94116.axf

JavaScript Object Notation format (JSON) in row-major order
http://www.bom.gov.au/fwo/IDD60801/IDD60801.94116.json

Data quality

Most of these data are generated automatically and are frequently updated. Quality checks on data are not normally performed. It is possible for incorrect values to appear. Refer to information at About Latest Weather Observations and please check the disclaimer before using these data.